OLA227 FGSL-GFLL
Flight info
| Callsign | OLA227 |
|---|---|
| Flight time | 3h 45m |
| Altitude | 40000 |
| Route | ARDEX UP685 ACC UB600 AD UV207 LGI |
| Aircraft | SU95/M-SDE3GILORVW/S |
Departure
| Time | 2026-04-18 10:47 |
|---|---|
| Airport | Malabo International Airport (FGSL) |
Arrival
| Time | 2026-04-18 14:32 |
|---|---|
| Airport | Lungi International Airport (GFLL) |
| Time | Latitude | Longitude | Altitude | Speed | Heading |
|---|---|---|---|---|---|
| 2026-04-18 10:27 | 3.75832 | 8.71577 | 57 ft | 0 kts | 129° |
| 2026-04-18 10:36 | 3.75840 | 8.71567 | 55 ft | 2 kts | 131° |
| 2026-04-18 10:36 | 3.75851 | 8.71555 | 56 ft | 2 kts | 135° |
| 2026-04-18 10:36 | 3.75864 | 8.71544 | 54 ft | 2 kts | 141° |
| 2026-04-18 10:36 | 3.75877 | 8.71535 | 57 ft | 2 kts | 151° |
| 2026-04-18 10:37 | 3.75893 | 8.71529 | 55 ft | 2 kts | 171° |
| 2026-04-18 10:37 | 3.75909 | 8.71531 | 56 ft | 2 kts | 201° |
| 2026-04-18 10:37 | 3.75919 | 8.71536 | 56 ft | 1 kts | 216° |
| 2026-04-18 10:37 | 3.75920 | 8.71536 | 56 ft | 0 kts | 217° |
| 2026-04-18 10:39 | 3.75919 | 8.71536 | 56 ft | 1 kts | 216° |
| 2026-04-18 10:40 | 3.75893 | 8.71516 | 54 ft | 9 kts | 219° |
| 2026-04-18 10:40 | 3.75826 | 8.71452 | 58 ft | 16 kts | 220° |
| 2026-04-18 10:40 | 3.75759 | 8.71378 | 59 ft | 12 kts | 265° |
| 2026-04-18 10:40 | 3.75744 | 8.71301 | 57 ft | 13 kts | 226° |
| 2026-04-18 10:41 | 3.75671 | 8.71236 | 61 ft | 15 kts | 224° |
| 2026-04-18 10:41 | 3.75593 | 8.71164 | 58 ft | 15 kts | 221° |
| 2026-04-18 10:41 | 3.75516 | 8.71095 | 61 ft | 15 kts | 221° |
| 2026-04-18 10:41 | 3.75438 | 8.71028 | 61 ft | 14 kts | 220° |
| 2026-04-18 10:42 | 3.75363 | 8.70962 | 62 ft | 14 kts | 221° |
| 2026-04-18 10:42 | 3.75291 | 8.70898 | 66 ft | 14 kts | 223° |
| 2026-04-18 10:42 | 3.75221 | 8.70834 | 65 ft | 14 kts | 222° |
| 2026-04-18 10:42 | 3.75150 | 8.70770 | 69 ft | 14 kts | 222° |
| 2026-04-18 10:43 | 3.75076 | 8.70703 | 66 ft | 15 kts | 221° |
| 2026-04-18 10:43 | 3.74998 | 8.70635 | 72 ft | 15 kts | 221° |
| 2026-04-18 10:43 | 3.74916 | 8.70563 | 73 ft | 16 kts | 223° |
| 2026-04-18 10:43 | 3.74833 | 8.70486 | 74 ft | 16 kts | 221° |
| 2026-04-18 10:44 | 3.74747 | 8.70412 | 72 ft | 16 kts | 221° |
| 2026-04-18 10:44 | 3.74664 | 8.70337 | 77 ft | 16 kts | 225° |
| 2026-04-18 10:44 | 3.74583 | 8.70261 | 74 ft | 17 kts | 220° |
| 2026-04-18 10:44 | 3.74495 | 8.70180 | 80 ft | 17 kts | 230° |
| 2026-04-18 10:45 | 3.74485 | 8.70071 | 82 ft | 17 kts | 302° |
| 2026-04-18 10:45 | 3.74558 | 8.70013 | 83 ft | 12 kts | 13° |
| 2026-04-18 10:45 | 3.74588 | 8.70033 | 85 ft | 0 kts | 44° |
| 2026-04-18 10:46 | 3.74604 | 8.70048 | 82 ft | 20 kts | 44° |
| 2026-04-18 10:46 | 3.74924 | 8.70334 | 75 ft | 101 kts | 42° |
| 2026-04-18 10:46 | 3.75626 | 8.70962 | 88 ft | 165 kts | 43° |
| 2026-04-18 10:47 | 3.76529 | 8.71738 | 723 ft | 175 kts | 41° |
| 2026-04-18 10:47 | 3.77488 | 8.72533 | 1490 ft | 182 kts | 39° |
| 2026-04-18 10:47 | 3.78477 | 8.73368 | 2223 ft | 191 kts | 39° |
| 2026-04-18 10:47 | 3.79627 | 8.74141 | 2653 ft | 209 kts | 23° |
| 2026-04-18 10:48 | 3.81103 | 8.74387 | 3094 ft | 224 kts | 351° |
| 2026-04-18 10:48 | 3.82518 | 8.73760 | 3752 ft | 227 kts | 318° |
| 2026-04-18 10:48 | 3.83421 | 8.72444 | 4301 ft | 241 kts | 292° |
| 2026-04-18 10:48 | 3.84011 | 8.70789 | 4704 ft | 264 kts | 287° |
| 2026-04-18 10:49 | 3.84561 | 8.68971 | 5246 ft | 279 kts | 287° |
| 2026-04-18 10:49 | 3.85133 | 8.67094 | 6086 ft | 283 kts | 287° |
| 2026-04-18 10:49 | 3.85738 | 8.65196 | 6850 ft | 289 kts | 288° |
| 2026-04-18 10:49 | 3.86375 | 8.63267 | 7584 ft | 295 kts | 289° |
| 2026-04-18 10:50 | 3.87036 | 8.61304 | 8312 ft | 300 kts | 289° |
| 2026-04-18 10:50 | 3.87712 | 8.59310 | 9049 ft | 305 kts | 289° |
| 2026-04-18 10:50 | 3.88403 | 8.57279 | 9774 ft | 311 kts | 289° |
| 2026-04-18 10:50 | 3.89110 | 8.55197 | 10265 ft | 325 kts | 289° |
| 2026-04-18 10:51 | 3.89863 | 8.52983 | 10493 ft | 346 kts | 289° |
| 2026-04-18 10:51 | 3.90648 | 8.50670 | 11061 ft | 353 kts | 289° |
| 2026-04-18 10:51 | 3.91440 | 8.48332 | 11784 ft | 356 kts | 289° |
| 2026-04-18 10:51 | 3.92239 | 8.45972 | 12475 ft | 360 kts | 289° |
| 2026-04-18 10:52 | 3.93051 | 8.43579 | 13172 ft | 364 kts | 289° |
| 2026-04-18 10:52 | 3.93871 | 8.41162 | 13831 ft | 369 kts | 289° |
| 2026-04-18 10:52 | 3.94687 | 8.38756 | 14481 ft | 370 kts | 289° |
| 2026-04-18 10:52 | 3.95528 | 8.36274 | 15129 ft | 373 kts | 289° |
| 2026-04-18 10:53 | 3.96366 | 8.33803 | 15757 ft | 376 kts | 290° |
| 2026-04-18 10:53 | 3.97210 | 8.31314 | 16375 ft | 379 kts | 290° |
| 2026-04-18 10:53 | 3.98061 | 8.28806 | 16991 ft | 382 kts | 290° |
| 2026-04-18 10:53 | 3.98906 | 8.26311 | 17577 ft | 385 kts | 290° |
| 2026-04-18 10:54 | 3.99768 | 8.23768 | 18170 ft | 388 kts | 290° |
| 2026-04-18 10:54 | 4.00638 | 8.21201 | 18671 ft | 390 kts | 290° |
| 2026-04-18 10:54 | 4.01514 | 8.18616 | 19175 ft | 393 kts | 289° |
| 2026-04-18 10:54 | 4.02397 | 8.16013 | 19667 ft | 396 kts | 289° |
| 2026-04-18 10:55 | 4.03285 | 8.13391 | 20160 ft | 399 kts | 289° |
| 2026-04-18 10:55 | 4.04179 | 8.10752 | 20655 ft | 402 kts | 289° |
| 2026-04-18 10:55 | 4.05082 | 8.08088 | 21142 ft | 405 kts | 289° |
| 2026-04-18 10:55 | 4.05989 | 8.05409 | 21621 ft | 408 kts | 289° |
| 2026-04-18 10:56 | 4.06904 | 8.02708 | 22090 ft | 411 kts | 289° |
| 2026-04-18 10:56 | 4.07824 | 7.99990 | 22558 ft | 414 kts | 289° |
| 2026-04-18 10:56 | 4.08752 | 7.97247 | 23035 ft | 417 kts | 289° |
| 2026-04-18 10:56 | 4.09685 | 7.94493 | 23494 ft | 420 kts | 289° |
| 2026-04-18 10:57 | 4.10624 | 7.91717 | 23920 ft | 421 kts | 289° |
| 2026-04-18 10:57 | 4.11554 | 7.88927 | 24358 ft | 423 kts | 287° |
| 2026-04-18 10:57 | 4.12229 | 7.86060 | 24756 ft | 425 kts | 279° |
| 2026-04-18 10:57 | 4.12570 | 7.83113 | 25143 ft | 427 kts | 275° |
| 2026-04-18 10:58 | 4.12854 | 7.80146 | 25538 ft | 429 kts | 275° |
| 2026-04-18 10:58 | 4.13145 | 7.77168 | 25935 ft | 430 kts | 275° |
| 2026-04-18 10:58 | 4.13440 | 7.74184 | 26299 ft | 432 kts | 275° |
| 2026-04-18 10:58 | 4.13737 | 7.71175 | 26666 ft | 435 kts | 275° |
| 2026-04-18 10:59 | 4.14035 | 7.68160 | 27025 ft | 437 kts | 275° |
| 2026-04-18 10:59 | 4.14335 | 7.65122 | 27373 ft | 439 kts | 275° |
| 2026-04-18 10:59 | 4.14634 | 7.62077 | 27722 ft | 441 kts | 275° |
| 2026-04-18 10:59 | 4.14936 | 7.59014 | 28083 ft | 442 kts | 275° |
| 2026-04-18 11:00 | 4.15238 | 7.55942 | 28441 ft | 444 kts | 275° |
| 2026-04-18 11:00 | 4.15541 | 7.52865 | 28799 ft | 445 kts | 275° |
| 2026-04-18 11:00 | 4.15845 | 7.49770 | 29134 ft | 447 kts | 275° |
| 2026-04-18 11:00 | 4.16150 | 7.46665 | 29465 ft | 449 kts | 275° |
| 2026-04-18 11:01 | 4.16455 | 7.43553 | 29799 ft | 450 kts | 275° |
| 2026-04-18 11:01 | 4.16762 | 7.40427 | 30109 ft | 452 kts | 275° |
| 2026-04-18 11:01 | 4.17070 | 7.37291 | 30398 ft | 453 kts | 275° |
| 2026-04-18 11:02 | 4.17689 | 7.30986 | 30972 ft | 457 kts | 275° |
| 2026-04-18 11:02 | 4.18000 | 7.27812 | 31259 ft | 459 kts | 275° |
| 2026-04-18 11:02 | 4.18312 | 7.24628 | 31521 ft | 461 kts | 275° |
| 2026-04-18 11:02 | 4.18621 | 7.21469 | 31788 ft | 462 kts | 275° |
| 2026-04-18 11:03 | 4.18935 | 7.18261 | 32044 ft | 464 kts | 275° |
| 2026-04-18 11:03 | 4.19251 | 7.15034 | 32297 ft | 466 kts | 275° |
| 2026-04-18 11:03 | 4.19568 | 7.11797 | 32556 ft | 467 kts | 275° |
| 2026-04-18 11:03 | 4.19884 | 7.08560 | 32868 ft | 467 kts | 275° |
| 2026-04-18 11:04 | 4.20200 | 7.05322 | 33204 ft | 466 kts | 275° |
| 2026-04-18 11:04 | 4.20516 | 7.02097 | 33542 ft | 465 kts | 274° |
| 2026-04-18 11:04 | 4.20830 | 6.98877 | 33871 ft | 464 kts | 274° |
| 2026-04-18 11:04 | 4.21143 | 6.95667 | 34154 ft | 463 kts | 275° |
| 2026-04-18 11:05 | 4.21456 | 6.92463 | 34428 ft | 461 kts | 275° |
| 2026-04-18 11:05 | 4.21767 | 6.89268 | 34694 ft | 461 kts | 275° |
| 2026-04-18 11:05 | 4.22082 | 6.86037 | 34952 ft | 459 kts | 275° |
| 2026-04-18 11:05 | 4.22392 | 6.82851 | 35200 ft | 459 kts | 274° |
| 2026-04-18 11:06 | 4.22697 | 6.79720 | 35446 ft | 458 kts | 274° |
| 2026-04-18 11:06 | 4.23006 | 6.76546 | 35691 ft | 457 kts | 274° |
| 2026-04-18 11:06 | 4.23313 | 6.73382 | 35929 ft | 456 kts | 274° |
| 2026-04-18 11:06 | 4.23621 | 6.70218 | 36153 ft | 456 kts | 274° |
| 2026-04-18 11:07 | 4.23928 | 6.67060 | 36377 ft | 456 kts | 274° |
| 2026-04-18 11:07 | 4.24233 | 6.63902 | 36591 ft | 455 kts | 274° |
| 2026-04-18 11:07 | 4.24537 | 6.60749 | 36801 ft | 455 kts | 274° |
| 2026-04-18 11:07 | 4.24841 | 6.57600 | 37004 ft | 454 kts | 274° |
| 2026-04-18 11:08 | 4.25144 | 6.54455 | 37194 ft | 454 kts | 274° |
| 2026-04-18 11:08 | 4.25447 | 6.51310 | 37380 ft | 453 kts | 274° |
| 2026-04-18 11:08 | 4.25750 | 6.48167 | 37554 ft | 453 kts | 274° |
| 2026-04-18 11:08 | 4.26053 | 6.45026 | 37724 ft | 453 kts | 274° |
| 2026-04-18 11:09 | 4.26355 | 6.41887 | 37888 ft | 452 kts | 274° |
| 2026-04-18 11:09 | 4.26557 | 6.39767 | 37993 ft | 452 kts | 274° |
| 2026-04-18 11:09 | 4.26854 | 6.36634 | 38146 ft | 452 kts | 274° |
| 2026-04-18 11:09 | 4.27149 | 6.33503 | 38292 ft | 452 kts | 274° |
| 2026-04-18 11:10 | 4.27445 | 6.30370 | 38437 ft | 451 kts | 274° |
| 2026-04-18 11:10 | 4.27737 | 6.27279 | 38556 ft | 451 kts | 274° |
| 2026-04-18 11:10 | 4.28033 | 6.24154 | 38673 ft | 451 kts | 274° |
| 2026-04-18 11:10 | 4.28328 | 6.21033 | 38790 ft | 450 kts | 274° |
| 2026-04-18 11:11 | 4.28626 | 6.17873 | 38909 ft | 449 kts | 274° |
| 2026-04-18 11:11 | 4.28916 | 6.14804 | 39008 ft | 449 kts | 274° |
| 2026-04-18 11:11 | 4.29504 | 6.08577 | 39191 ft | 448 kts | 274° |
| 2026-04-18 11:12 | 4.30091 | 6.02365 | 39367 ft | 448 kts | 274° |
| 2026-04-18 11:12 | 4.30681 | 5.96159 | 39529 ft | 447 kts | 274° |
| 2026-04-18 11:13 | 4.31268 | 5.89969 | 39674 ft | 446 kts | 274° |
| 2026-04-18 11:13 | 4.31855 | 5.83777 | 39794 ft | 446 kts | 274° |
| 2026-04-18 11:14 | 4.32441 | 5.77592 | 39851 ft | 446 kts | 274° |
| 2026-04-18 11:14 | 4.33025 | 5.71416 | 39852 ft | 445 kts | 274° |
| 2026-04-18 11:15 | 4.33608 | 5.65239 | 39852 ft | 445 kts | 274° |
| 2026-04-18 11:15 | 4.34181 | 5.59064 | 39859 ft | 445 kts | 274° |
| 2026-04-18 11:16 | 4.34749 | 5.52889 | 39850 ft | 445 kts | 274° |
| 2026-04-18 11:16 | 4.35318 | 5.46715 | 39857 ft | 445 kts | 274° |
| 2026-04-18 11:17 | 4.35887 | 5.40537 | 39854 ft | 445 kts | 274° |
| 2026-04-18 11:17 | 4.36456 | 5.34359 | 39855 ft | 445 kts | 274° |
| 2026-04-18 11:18 | 4.37020 | 5.28225 | 39855 ft | 445 kts | 274° |
| 2026-04-18 11:18 | 4.37588 | 5.22051 | 39853 ft | 445 kts | 273° |
| 2026-04-18 11:19 | 4.38155 | 5.15876 | 39853 ft | 445 kts | 273° |
| 2026-04-18 11:19 | 4.38721 | 5.09705 | 39853 ft | 445 kts | 273° |
| 2026-04-18 11:20 | 4.39290 | 5.03494 | 39857 ft | 445 kts | 273° |
| 2026-04-18 11:20 | 4.39851 | 4.97363 | 39862 ft | 444 kts | 273° |
| 2026-04-18 11:21 | 4.40415 | 4.91198 | 39845 ft | 444 kts | 273° |
| 2026-04-18 11:21 | 4.40979 | 4.85037 | 39851 ft | 444 kts | 273° |
| 2026-04-18 11:22 | 4.41541 | 4.78878 | 39845 ft | 444 kts | 273° |
| 2026-04-18 11:22 | 4.42103 | 4.72719 | 39843 ft | 444 kts | 273° |
| 2026-04-18 11:23 | 4.42664 | 4.66564 | 39841 ft | 443 kts | 273° |
| 2026-04-18 11:23 | 4.43224 | 4.60413 | 39841 ft | 443 kts | 273° |
| 2026-04-18 11:24 | 4.43958 | 4.54279 | 39840 ft | 445 kts | 279° |
| 2026-04-18 11:24 | 4.45460 | 4.48259 | 39837 ft | 445 kts | 282° |
| 2026-04-18 11:25 | 4.47022 | 4.42251 | 39837 ft | 445 kts | 282° |
| 2026-04-18 11:25 | 4.48581 | 4.36244 | 39839 ft | 445 kts | 282° |
| 2026-04-18 11:26 | 4.50140 | 4.30237 | 39838 ft | 446 kts | 282° |
| 2026-04-18 11:26 | 4.51692 | 4.24261 | 39841 ft | 446 kts | 282° |
| 2026-04-18 11:27 | 4.53253 | 4.18246 | 39841 ft | 446 kts | 282° |
| 2026-04-18 11:27 | 4.54817 | 4.12221 | 39847 ft | 447 kts | 282° |
| 2026-04-18 11:28 | 4.56379 | 4.06198 | 39855 ft | 447 kts | 282° |
| 2026-04-18 11:28 | 4.57943 | 4.00165 | 39845 ft | 447 kts | 282° |
| 2026-04-18 11:29 | 4.59506 | 3.94135 | 39850 ft | 447 kts | 282° |
| 2026-04-18 11:29 | 4.61071 | 3.88097 | 39848 ft | 448 kts | 282° |
| 2026-04-18 11:30 | 4.62635 | 3.82058 | 39853 ft | 447 kts | 282° |
| 2026-04-18 11:30 | 4.64197 | 3.76025 | 39858 ft | 447 kts | 282° |
| 2026-04-18 11:31 | 4.65759 | 3.69990 | 39848 ft | 447 kts | 282° |
| 2026-04-18 11:31 | 4.67317 | 3.63966 | 39840 ft | 447 kts | 283° |
| 2026-04-18 11:32 | 4.68876 | 3.57937 | 39844 ft | 447 kts | 282° |
| 2026-04-18 11:32 | 4.70434 | 3.51911 | 39841 ft | 447 kts | 283° |
| 2026-04-18 11:33 | 4.71993 | 3.45880 | 39836 ft | 446 kts | 283° |
| 2026-04-18 11:33 | 4.73549 | 3.39857 | 39839 ft | 446 kts | 283° |
| 2026-04-18 11:34 | 4.75104 | 3.33836 | 39844 ft | 446 kts | 283° |
| 2026-04-18 11:34 | 4.76658 | 3.27815 | 39837 ft | 446 kts | 283° |
| 2026-04-18 11:35 | 4.78210 | 3.21798 | 39841 ft | 446 kts | 283° |
| 2026-04-18 11:35 | 4.79762 | 3.15781 | 39848 ft | 446 kts | 283° |
| 2026-04-18 11:36 | 4.81314 | 3.09762 | 39841 ft | 446 kts | 283° |
| 2026-04-18 11:36 | 4.82864 | 3.03747 | 39843 ft | 446 kts | 283° |
| 2026-04-18 11:37 | 4.84403 | 2.97775 | 39844 ft | 445 kts | 283° |
| 2026-04-18 11:37 | 4.85962 | 2.91724 | 39841 ft | 445 kts | 283° |
| 2026-04-18 11:38 | 4.87497 | 2.85758 | 39842 ft | 445 kts | 283° |
| 2026-04-18 11:38 | 4.89042 | 2.79758 | 39839 ft | 444 kts | 282° |
| 2026-04-18 11:39 | 4.90586 | 2.73757 | 39837 ft | 444 kts | 282° |
| 2026-04-18 11:39 | 4.92127 | 2.67765 | 39837 ft | 444 kts | 282° |
| 2026-04-18 11:40 | 4.93667 | 2.61777 | 39835 ft | 443 kts | 282° |
| 2026-04-18 11:40 | 4.95205 | 2.55795 | 39831 ft | 443 kts | 282° |
| 2026-04-18 11:41 | 4.96740 | 2.49822 | 39833 ft | 442 kts | 282° |
| 2026-04-18 11:41 | 4.98275 | 2.43844 | 39839 ft | 442 kts | 282° |
| 2026-04-18 11:42 | 4.99808 | 2.37874 | 39831 ft | 442 kts | 282° |
| 2026-04-18 11:42 | 5.01339 | 2.31912 | 39825 ft | 442 kts | 282° |
| 2026-04-18 11:43 | 5.02869 | 2.25946 | 39829 ft | 441 kts | 282° |
| 2026-04-18 11:43 | 5.04399 | 2.19982 | 39828 ft | 441 kts | 282° |
| 2026-04-18 11:44 | 5.05929 | 2.14022 | 39824 ft | 441 kts | 282° |
| 2026-04-18 11:44 | 5.07462 | 2.08059 | 39841 ft | 441 kts | 282° |
| 2026-04-18 11:45 | 5.08994 | 2.02094 | 39827 ft | 442 kts | 282° |
| 2026-04-18 11:45 | 5.10526 | 1.96126 | 39827 ft | 442 kts | 282° |
| 2026-04-18 11:46 | 5.12058 | 1.90155 | 39838 ft | 442 kts | 282° |
| 2026-04-18 11:46 | 5.13590 | 1.84183 | 39830 ft | 442 kts | 282° |
| 2026-04-18 11:47 | 5.15122 | 1.78207 | 39844 ft | 442 kts | 282° |
| 2026-04-18 11:47 | 5.16654 | 1.72230 | 39833 ft | 443 kts | 282° |
| 2026-04-18 11:48 | 5.18187 | 1.66246 | 39839 ft | 443 kts | 282° |
| 2026-04-18 11:48 | 5.19718 | 1.60267 | 39842 ft | 443 kts | 282° |
| 2026-04-18 11:49 | 5.21231 | 1.54283 | 39844 ft | 443 kts | 281° |
| 2026-04-18 11:49 | 5.22711 | 1.48291 | 39847 ft | 442 kts | 281° |
| 2026-04-18 11:50 | 5.24195 | 1.42299 | 39841 ft | 442 kts | 281° |
| 2026-04-18 11:50 | 5.25679 | 1.36313 | 39839 ft | 442 kts | 281° |
| 2026-04-18 11:51 | 5.27163 | 1.30331 | 39832 ft | 442 kts | 282° |
| 2026-04-18 11:51 | 5.28646 | 1.24350 | 39836 ft | 441 kts | 281° |
| 2026-04-18 11:52 | 5.30126 | 1.18382 | 39842 ft | 441 kts | 281° |
| 2026-04-18 11:52 | 5.31606 | 1.12407 | 39835 ft | 441 kts | 281° |
| 2026-04-18 11:53 | 5.33083 | 1.06443 | 39831 ft | 440 kts | 281° |
| 2026-04-18 11:53 | 5.34559 | 1.00479 | 39841 ft | 440 kts | 281° |
| 2026-04-18 11:54 | 5.36032 | 0.94527 | 39827 ft | 440 kts | 281° |
| 2026-04-18 11:54 | 5.37256 | 0.89577 | 39827 ft | 439 kts | 281° |
| 2026-04-18 11:55 | 5.38727 | 0.83628 | 39827 ft | 439 kts | 281° |
| 2026-04-18 11:55 | 5.40203 | 0.77680 | 39830 ft | 439 kts | 281° |
| 2026-04-18 11:56 | 5.41690 | 0.71738 | 39834 ft | 439 kts | 281° |
| 2026-04-18 11:56 | 5.43174 | 0.65800 | 39834 ft | 439 kts | 281° |
| 2026-04-18 11:57 | 5.44655 | 0.59864 | 39839 ft | 438 kts | 281° |
| 2026-04-18 11:57 | 5.46135 | 0.53929 | 39837 ft | 438 kts | 281° |
| 2026-04-18 11:58 | 5.47614 | 0.47997 | 39827 ft | 438 kts | 281° |
| 2026-04-18 11:58 | 5.49093 | 0.42059 | 39827 ft | 438 kts | 281° |
| 2026-04-18 11:59 | 5.50569 | 0.36132 | 39844 ft | 438 kts | 281° |
| 2026-04-18 11:59 | 5.52046 | 0.30201 | 39826 ft | 438 kts | 281° |
| 2026-04-18 12:00 | 5.53513 | 0.24307 | 39825 ft | 438 kts | 282° |
| 2026-04-18 12:00 | 5.54989 | 0.18374 | 39823 ft | 438 kts | 282° |
| 2026-04-18 12:01 | 5.57201 | 0.09473 | 39831 ft | 438 kts | 282° |
| 2026-04-18 12:02 | 5.58678 | 0.03531 | 39840 ft | 439 kts | 282° |
| 2026-04-18 12:02 | 5.60154 | -0.02416 | 39843 ft | 439 kts | 282° |
| 2026-04-18 12:03 | 5.61633 | -0.08373 | 39850 ft | 440 kts | 282° |
| 2026-04-18 12:03 | 5.62766 | -0.14389 | 39859 ft | 438 kts | 274° |
| 2026-04-18 12:04 | 5.62917 | -0.20478 | 39860 ft | 436 kts | 264° |
| 2026-04-18 12:04 | 5.62360 | -0.26534 | 39856 ft | 436 kts | 263° |
| 2026-04-18 12:05 | 5.61791 | -0.32596 | 39853 ft | 437 kts | 263° |
| 2026-04-18 12:05 | 5.61219 | -0.38669 | 39854 ft | 437 kts | 263° |
| 2026-04-18 12:06 | 5.60644 | -0.44745 | 39852 ft | 438 kts | 263° |
| 2026-04-18 12:06 | 5.60066 | -0.50829 | 39844 ft | 438 kts | 263° |
| 2026-04-18 12:07 | 5.59488 | -0.56917 | 39846 ft | 438 kts | 263° |
| 2026-04-18 12:07 | 5.58908 | -0.63009 | 39850 ft | 439 kts | 263° |
| 2026-04-18 12:08 | 5.58327 | -0.69106 | 39848 ft | 439 kts | 263° |
| 2026-04-18 12:08 | 5.57746 | -0.75200 | 39849 ft | 439 kts | 263° |
| 2026-04-18 12:09 | 5.57164 | -0.81302 | 39848 ft | 439 kts | 263° |
| 2026-04-18 12:09 | 5.56582 | -0.87393 | 39853 ft | 438 kts | 263° |
| 2026-04-18 12:10 | 5.55999 | -0.93487 | 39852 ft | 438 kts | 263° |
| 2026-04-18 12:10 | 5.55416 | -0.99575 | 39852 ft | 438 kts | 263° |
| 2026-04-18 12:11 | 5.54833 | -1.05662 | 39845 ft | 438 kts | 263° |
| 2026-04-18 12:11 | 5.54249 | -1.11741 | 39850 ft | 437 kts | 263° |
| 2026-04-18 12:12 | 5.53667 | -1.17820 | 39838 ft | 437 kts | 263° |
| 2026-04-18 12:12 | 5.53094 | -1.23893 | 39846 ft | 437 kts | 263° |
| 2026-04-18 12:13 | 5.52523 | -1.29966 | 39845 ft | 437 kts | 263° |
| 2026-04-18 12:13 | 5.51950 | -1.36032 | 39844 ft | 437 kts | 263° |
| 2026-04-18 12:14 | 5.51376 | -1.42105 | 39838 ft | 437 kts | 263° |
| 2026-04-18 12:14 | 5.50801 | -1.48173 | 39838 ft | 437 kts | 263° |
| 2026-04-18 12:15 | 5.50229 | -1.54208 | 39841 ft | 437 kts | 263° |
| 2026-04-18 12:15 | 5.49652 | -1.60288 | 39847 ft | 438 kts | 263° |
| 2026-04-18 12:16 | 5.49073 | -1.66375 | 39846 ft | 438 kts | 263° |
| 2026-04-18 12:16 | 5.48496 | -1.72466 | 39849 ft | 439 kts | 264° |
| 2026-04-18 12:17 | 5.47945 | -1.78574 | 39855 ft | 439 kts | 264° |
| 2026-04-18 12:17 | 5.47397 | -1.84683 | 39855 ft | 440 kts | 264° |
| 2026-04-18 12:18 | 5.46844 | -1.90800 | 39854 ft | 440 kts | 264° |
| 2026-04-18 12:18 | 5.46289 | -1.96917 | 39863 ft | 440 kts | 264° |
| 2026-04-18 12:19 | 5.45732 | -2.03046 | 39861 ft | 441 kts | 264° |
| 2026-04-18 12:19 | 5.45175 | -2.09175 | 39864 ft | 441 kts | 264° |
| 2026-04-18 12:20 | 5.44617 | -2.15296 | 39864 ft | 441 kts | 264° |
| 2026-04-18 12:20 | 5.44059 | -2.21419 | 39860 ft | 440 kts | 264° |
| 2026-04-18 12:21 | 5.43501 | -2.27538 | 39856 ft | 440 kts | 264° |
| 2026-04-18 12:21 | 5.42944 | -2.33646 | 39854 ft | 439 kts | 264° |
| 2026-04-18 12:22 | 5.42386 | -2.39745 | 39844 ft | 439 kts | 264° |
| 2026-04-18 12:22 | 5.41828 | -2.45838 | 39853 ft | 438 kts | 264° |
| 2026-04-18 12:23 | 5.41271 | -2.51918 | 39838 ft | 437 kts | 264° |
| 2026-04-18 12:23 | 5.40714 | -2.57993 | 39840 ft | 437 kts | 264° |
| 2026-04-18 12:24 | 5.40157 | -2.64061 | 39837 ft | 437 kts | 264° |
| 2026-04-18 12:24 | 5.39599 | -2.70125 | 39833 ft | 436 kts | 264° |
| 2026-04-18 12:25 | 5.39042 | -2.76183 | 39828 ft | 436 kts | 264° |
| 2026-04-18 12:25 | 5.38482 | -2.82251 | 39831 ft | 436 kts | 264° |
| 2026-04-18 12:26 | 5.37921 | -2.88317 | 39830 ft | 437 kts | 264° |
| 2026-04-18 12:26 | 5.37364 | -2.94343 | 39842 ft | 437 kts | 264° |
| 2026-04-18 12:27 | 5.36798 | -3.00459 | 39832 ft | 437 kts | 264° |
| 2026-04-18 12:27 | 5.36238 | -3.06501 | 39835 ft | 438 kts | 264° |
| 2026-04-18 12:28 | 5.35670 | -3.12625 | 39838 ft | 439 kts | 264° |
| 2026-04-18 12:28 | 5.35104 | -3.18727 | 39853 ft | 439 kts | 264° |
| 2026-04-18 12:29 | 5.34536 | -3.24828 | 39846 ft | 439 kts | 264° |
| 2026-04-18 12:29 | 5.33968 | -3.30936 | 39847 ft | 440 kts | 264° |
| 2026-04-18 12:30 | 5.33399 | -3.37043 | 39846 ft | 440 kts | 264° |
| 2026-04-18 12:30 | 5.32829 | -3.43154 | 39853 ft | 440 kts | 264° |
| 2026-04-18 12:31 | 5.32258 | -3.49264 | 39841 ft | 440 kts | 264° |
| 2026-04-18 12:31 | 5.31687 | -3.55382 | 39842 ft | 440 kts | 264° |
| 2026-04-18 12:32 | 5.31115 | -3.61494 | 39844 ft | 440 kts | 264° |
| 2026-04-18 12:32 | 5.30542 | -3.67609 | 39842 ft | 440 kts | 264° |
| 2026-04-18 12:33 | 5.29969 | -3.73722 | 39846 ft | 440 kts | 264° |
| 2026-04-18 12:33 | 5.29395 | -3.79837 | 39843 ft | 440 kts | 264° |
| 2026-04-18 12:34 | 5.28829 | -3.85954 | 39847 ft | 440 kts | 266° |
| 2026-04-18 12:34 | 5.29057 | -3.92078 | 39843 ft | 441 kts | 278° |
| 2026-04-18 12:35 | 5.30551 | -3.98041 | 39837 ft | 442 kts | 290° |
| 2026-04-18 12:35 | 5.32647 | -4.03834 | 39833 ft | 442 kts | 289° |
| 2026-04-18 12:36 | 5.34728 | -4.09647 | 39831 ft | 443 kts | 289° |
| 2026-04-18 12:36 | 5.36799 | -4.15426 | 39835 ft | 444 kts | 289° |
| 2026-04-18 12:37 | 5.38891 | -4.21262 | 39842 ft | 444 kts | 289° |
| 2026-04-18 12:37 | 5.40985 | -4.27103 | 39842 ft | 445 kts | 289° |
| 2026-04-18 12:38 | 5.43083 | -4.32959 | 39857 ft | 446 kts | 289° |
| 2026-04-18 12:38 | 5.45183 | -4.38822 | 39859 ft | 447 kts | 289° |
| 2026-04-18 12:39 | 5.47287 | -4.44697 | 39863 ft | 447 kts | 289° |
| 2026-04-18 12:39 | 5.49047 | -4.49616 | 39863 ft | 447 kts | 289° |
| 2026-04-18 12:40 | 5.51491 | -4.56446 | 39864 ft | 447 kts | 289° |
| 2026-04-18 12:40 | 5.53253 | -4.61369 | 39857 ft | 447 kts | 289° |
| 2026-04-18 12:41 | 5.55352 | -4.67239 | 39860 ft | 447 kts | 289° |
| 2026-04-18 12:41 | 5.57449 | -4.73106 | 39847 ft | 446 kts | 289° |
| 2026-04-18 12:42 | 5.59543 | -4.78966 | 39844 ft | 446 kts | 289° |
| 2026-04-18 12:42 | 5.61622 | -4.84787 | 39832 ft | 446 kts | 289° |
| 2026-04-18 12:43 | 5.63708 | -4.90630 | 39818 ft | 445 kts | 289° |
| 2026-04-18 12:43 | 5.65797 | -4.96479 | 39817 ft | 445 kts | 289° |
| 2026-04-18 12:44 | 5.67883 | -5.02325 | 39814 ft | 444 kts | 289° |
| 2026-04-18 12:44 | 5.69966 | -5.08164 | 39810 ft | 444 kts | 288° |
| 2026-04-18 12:45 | 5.72049 | -5.14004 | 39813 ft | 445 kts | 288° |
| 2026-04-18 12:45 | 5.74134 | -5.19853 | 39814 ft | 445 kts | 288° |
| 2026-04-18 12:46 | 5.76221 | -5.25711 | 39816 ft | 446 kts | 288° |
| 2026-04-18 12:46 | 5.78310 | -5.31576 | 39826 ft | 447 kts | 288° |
| 2026-04-18 12:47 | 5.80404 | -5.37457 | 39839 ft | 447 kts | 288° |
| 2026-04-18 12:47 | 5.82500 | -5.43345 | 39833 ft | 448 kts | 288° |
| 2026-04-18 12:48 | 5.84602 | -5.49250 | 39846 ft | 449 kts | 288° |
| 2026-04-18 12:48 | 5.86707 | -5.55169 | 39869 ft | 450 kts | 288° |
| 2026-04-18 12:49 | 5.88813 | -5.61094 | 39870 ft | 451 kts | 288° |
| 2026-04-18 12:49 | 5.90920 | -5.67020 | 39876 ft | 451 kts | 288° |
| 2026-04-18 12:50 | 5.93026 | -5.72949 | 39881 ft | 450 kts | 288° |
| 2026-04-18 12:50 | 5.95125 | -5.78857 | 39881 ft | 449 kts | 288° |
| 2026-04-18 12:51 | 5.97222 | -5.84766 | 39882 ft | 448 kts | 289° |
| 2026-04-18 12:51 | 5.99311 | -5.90651 | 39872 ft | 446 kts | 289° |
| 2026-04-18 12:52 | 6.01390 | -5.96513 | 39865 ft | 444 kts | 289° |
| 2026-04-18 12:52 | 6.03461 | -6.02352 | 39848 ft | 443 kts | 289° |
| 2026-04-18 12:53 | 6.05520 | -6.08161 | 39840 ft | 440 kts | 288° |
| 2026-04-18 12:53 | 6.07569 | -6.13943 | 39834 ft | 439 kts | 288° |
| 2026-04-18 12:54 | 6.09612 | -6.19710 | 39823 ft | 437 kts | 288° |
| 2026-04-18 12:54 | 6.11645 | -6.25452 | 39817 ft | 436 kts | 288° |
| 2026-04-18 12:55 | 6.13673 | -6.31181 | 39811 ft | 435 kts | 288° |
| 2026-04-18 12:55 | 6.15697 | -6.36900 | 39808 ft | 434 kts | 288° |
| 2026-04-18 12:56 | 6.17720 | -6.42616 | 39804 ft | 434 kts | 288° |
| 2026-04-18 12:56 | 6.19739 | -6.48326 | 39805 ft | 434 kts | 288° |
| 2026-04-18 12:57 | 6.21759 | -6.54040 | 39804 ft | 434 kts | 288° |
| 2026-04-18 12:57 | 6.23783 | -6.59767 | 39811 ft | 435 kts | 288° |
| 2026-04-18 12:58 | 6.25809 | -6.65503 | 39814 ft | 436 kts | 288° |
| 2026-04-18 12:58 | 6.27840 | -6.71256 | 39820 ft | 437 kts | 288° |
| 2026-04-18 12:59 | 6.29861 | -6.76980 | 39834 ft | 438 kts | 288° |
| 2026-04-18 12:59 | 6.31900 | -6.82758 | 39840 ft | 439 kts | 288° |
| 2026-04-18 13:00 | 6.33944 | -6.88556 | 39847 ft | 440 kts | 288° |
| 2026-04-18 13:00 | 6.35992 | -6.94365 | 39857 ft | 441 kts | 288° |
| 2026-04-18 13:01 | 6.38041 | -7.00178 | 39859 ft | 441 kts | 288° |
| 2026-04-18 13:01 | 6.40091 | -7.05998 | 39867 ft | 441 kts | 288° |
| 2026-04-18 13:02 | 6.42138 | -7.11811 | 39860 ft | 441 kts | 288° |
| 2026-04-18 13:02 | 6.44184 | -7.17623 | 39859 ft | 441 kts | 287° |
| 2026-04-18 13:03 | 6.46226 | -7.23425 | 39848 ft | 440 kts | 287° |
| 2026-04-18 13:03 | 6.49280 | -7.32110 | 39831 ft | 438 kts | 287° |
| 2026-04-18 13:04 | 6.51307 | -7.37875 | 39829 ft | 437 kts | 287° |
| 2026-04-18 13:04 | 6.53327 | -7.43625 | 39825 ft | 436 kts | 287° |
| 2026-04-18 13:05 | 6.55343 | -7.49364 | 39811 ft | 435 kts | 287° |
| 2026-04-18 13:05 | 6.57352 | -7.55088 | 39808 ft | 434 kts | 287° |
| 2026-04-18 13:06 | 6.59359 | -7.60807 | 39795 ft | 433 kts | 287° |
| 2026-04-18 13:06 | 6.61360 | -7.66511 | 39794 ft | 432 kts | 287° |
| 2026-04-18 13:07 | 6.63359 | -7.72214 | 39791 ft | 432 kts | 287° |
| 2026-04-18 13:07 | 6.65358 | -7.77916 | 39790 ft | 432 kts | 287° |
| 2026-04-18 13:08 | 6.67367 | -7.83619 | 39795 ft | 433 kts | 288° |
| 2026-04-18 13:08 | 6.69475 | -7.89291 | 39800 ft | 433 kts | 288° |
| 2026-04-18 13:09 | 6.71581 | -7.94934 | 39805 ft | 434 kts | 288° |
| 2026-04-18 13:09 | 6.73690 | -8.00624 | 39809 ft | 435 kts | 288° |
| 2026-04-18 13:10 | 6.75800 | -8.06327 | 39815 ft | 435 kts | 288° |
| 2026-04-18 13:10 | 6.77911 | -8.12038 | 39818 ft | 436 kts | 288° |
| 2026-04-18 13:11 | 6.80025 | -8.17759 | 39823 ft | 436 kts | 288° |
| 2026-04-18 13:11 | 6.82141 | -8.23487 | 39825 ft | 437 kts | 288° |
| 2026-04-18 13:12 | 6.84244 | -8.29180 | 39829 ft | 437 kts | 288° |
| 2026-04-18 13:12 | 6.86375 | -8.34955 | 39835 ft | 437 kts | 288° |
| 2026-04-18 13:13 | 6.88492 | -8.40692 | 39827 ft | 437 kts | 288° |
| 2026-04-18 13:13 | 6.90604 | -8.46418 | 39826 ft | 437 kts | 288° |
| 2026-04-18 13:14 | 6.92719 | -8.52154 | 39827 ft | 436 kts | 288° |
| 2026-04-18 13:14 | 6.94826 | -8.57871 | 39825 ft | 436 kts | 288° |
| 2026-04-18 13:15 | 6.96932 | -8.63588 | 39820 ft | 435 kts | 288° |
| 2026-04-18 13:15 | 6.99034 | -8.69296 | 39819 ft | 435 kts | 288° |
| 2026-04-18 13:16 | 7.01133 | -8.75000 | 39815 ft | 434 kts | 288° |
| 2026-04-18 13:16 | 7.03224 | -8.80693 | 39808 ft | 433 kts | 288° |
| 2026-04-18 13:17 | 7.05228 | -8.86411 | 39807 ft | 433 kts | 287° |
| 2026-04-18 13:17 | 7.07216 | -8.92128 | 39806 ft | 433 kts | 287° |
| 2026-04-18 13:18 | 7.09212 | -8.97837 | 39806 ft | 432 kts | 287° |
| 2026-04-18 13:18 | 7.11210 | -9.03544 | 39809 ft | 432 kts | 287° |
| 2026-04-18 13:19 | 7.13206 | -9.09247 | 39807 ft | 432 kts | 287° |
| 2026-04-18 13:19 | 7.15204 | -9.14959 | 39810 ft | 432 kts | 287° |
| 2026-04-18 13:20 | 7.17199 | -9.20664 | 39811 ft | 432 kts | 287° |
| 2026-04-18 13:20 | 7.19197 | -9.26382 | 39816 ft | 433 kts | 287° |
| 2026-04-18 13:21 | 7.21194 | -9.32099 | 39821 ft | 433 kts | 287° |
| 2026-04-18 13:21 | 7.23190 | -9.37815 | 39825 ft | 433 kts | 287° |
| 2026-04-18 13:22 | 7.25188 | -9.43538 | 39825 ft | 433 kts | 287° |
| 2026-04-18 13:22 | 7.27183 | -9.49256 | 39838 ft | 433 kts | 287° |
| 2026-04-18 13:23 | 7.29177 | -9.54975 | 39836 ft | 432 kts | 287° |
| 2026-04-18 13:23 | 7.31156 | -9.60651 | 39830 ft | 432 kts | 287° |
| 2026-04-18 13:24 | 7.33156 | -9.66391 | 39830 ft | 431 kts | 287° |
| 2026-04-18 13:24 | 7.35123 | -9.72039 | 39826 ft | 430 kts | 287° |
| 2026-04-18 13:25 | 7.37099 | -9.77715 | 39822 ft | 429 kts | 287° |
| 2026-04-18 13:25 | 7.39069 | -9.83379 | 39813 ft | 428 kts | 287° |
| 2026-04-18 13:26 | 7.40716 | -9.88113 | 39819 ft | 427 kts | 287° |
| 2026-04-18 13:26 | 7.42859 | -9.93687 | 39812 ft | 427 kts | 291° |
| 2026-04-18 13:27 | 7.45182 | -9.99176 | 39810 ft | 425 kts | 291° |
| 2026-04-18 13:27 | 7.47493 | -10.04658 | 39803 ft | 425 kts | 291° |
| 2026-04-18 13:28 | 7.49783 | -10.10092 | 39807 ft | 424 kts | 291° |
| 2026-04-18 13:28 | 7.52083 | -10.15554 | 39801 ft | 423 kts | 291° |
| 2026-04-18 13:29 | 7.54383 | -10.21014 | 39798 ft | 423 kts | 291° |
| 2026-04-18 13:29 | 7.56649 | -10.26474 | 39804 ft | 422 kts | 289° |
| 2026-04-18 13:30 | 7.58669 | -10.32071 | 39805 ft | 422 kts | 288° |
| 2026-04-18 13:30 | 7.60657 | -10.37633 | 39806 ft | 422 kts | 288° |
| 2026-04-18 13:31 | 7.62678 | -10.43195 | 39808 ft | 423 kts | 288° |
| 2026-04-18 13:31 | 7.64708 | -10.48757 | 39813 ft | 423 kts | 288° |
| 2026-04-18 13:32 | 7.66741 | -10.54327 | 39815 ft | 424 kts | 288° |
| 2026-04-18 13:32 | 7.68761 | -10.59867 | 39813 ft | 424 kts | 288° |
| 2026-04-18 13:33 | 7.70794 | -10.65446 | 39818 ft | 425 kts | 288° |
| 2026-04-18 13:33 | 7.72832 | -10.71040 | 39823 ft | 425 kts | 288° |
| 2026-04-18 13:34 | 7.74868 | -10.76629 | 39820 ft | 425 kts | 288° |
| 2026-04-18 13:34 | 7.76906 | -10.82228 | 39821 ft | 425 kts | 288° |
| 2026-04-18 13:35 | 7.78942 | -10.87823 | 39821 ft | 425 kts | 288° |
| 2026-04-18 13:35 | 7.80976 | -10.93417 | 39817 ft | 425 kts | 288° |
| 2026-04-18 13:36 | 7.83008 | -10.99006 | 39812 ft | 424 kts | 288° |
| 2026-04-18 13:36 | 7.85038 | -11.04594 | 39812 ft | 424 kts | 288° |
| 2026-04-18 13:37 | 7.87065 | -11.10175 | 39807 ft | 423 kts | 288° |
| 2026-04-18 13:37 | 7.89087 | -11.15744 | 39804 ft | 423 kts | 288° |
| 2026-04-18 13:38 | 7.91108 | -11.21315 | 39802 ft | 423 kts | 288° |
| 2026-04-18 13:38 | 7.93129 | -11.26887 | 39801 ft | 422 kts | 288° |
| 2026-04-18 13:39 | 7.95133 | -11.32414 | 39796 ft | 422 kts | 288° |
| 2026-04-18 13:39 | 7.97146 | -11.37970 | 39793 ft | 422 kts | 288° |
| 2026-04-18 13:40 | 7.99159 | -11.43528 | 39790 ft | 422 kts | 288° |
| 2026-04-18 13:40 | 8.01169 | -11.49083 | 39789 ft | 422 kts | 288° |
| 2026-04-18 13:41 | 8.03173 | -11.54621 | 39293 ft | 420 kts | 288° |
| 2026-04-18 13:41 | 8.04178 | -11.57403 | 38460 ft | 425 kts | 289° |
| 2026-04-18 13:41 | 8.05203 | -11.60238 | 37261 ft | 434 kts | 289° |
| 2026-04-18 13:42 | 8.06243 | -11.63118 | 36188 ft | 440 kts | 289° |
| 2026-04-18 13:42 | 8.07294 | -11.66025 | 35215 ft | 443 kts | 289° |
| 2026-04-18 13:42 | 8.08352 | -11.68953 | 34285 ft | 446 kts | 289° |
| 2026-04-18 13:42 | 8.09414 | -11.71895 | 33327 ft | 448 kts | 290° |
| 2026-04-18 13:43 | 8.10485 | -11.74860 | 32393 ft | 451 kts | 290° |
| 2026-04-18 13:43 | 8.11564 | -11.77846 | 31609 ft | 453 kts | 290° |
| 2026-04-18 13:43 | 8.12636 | -11.80817 | 31117 ft | 448 kts | 290° |
| 2026-04-18 13:43 | 8.13692 | -11.83744 | 30800 ft | 440 kts | 290° |
| 2026-04-18 13:44 | 8.14735 | -11.86636 | 30231 ft | 438 kts | 290° |
| 2026-04-18 13:44 | 8.15774 | -11.89519 | 29681 ft | 435 kts | 290° |
| 2026-04-18 13:44 | 8.16804 | -11.92374 | 29096 ft | 431 kts | 290° |
| 2026-04-18 13:44 | 8.17825 | -11.95208 | 28488 ft | 428 kts | 290° |
| 2026-04-18 13:45 | 8.18849 | -11.98047 | 27506 ft | 434 kts | 290° |
| 2026-04-18 13:45 | 8.19881 | -12.00910 | 26647 ft | 434 kts | 290° |
| 2026-04-18 13:45 | 8.20908 | -12.03760 | 25919 ft | 429 kts | 290° |
| 2026-04-18 13:45 | 8.21922 | -12.06578 | 25214 ft | 425 kts | 291° |
| 2026-04-18 13:46 | 8.22927 | -12.09370 | 24512 ft | 421 kts | 291° |
| 2026-04-18 13:46 | 8.23924 | -12.12138 | 23807 ft | 418 kts | 291° |
| 2026-04-18 13:46 | 8.24911 | -12.14883 | 23087 ft | 415 kts | 291° |
| 2026-04-18 13:46 | 8.25896 | -12.17615 | 22179 ft | 414 kts | 290° |
| 2026-04-18 13:47 | 8.26878 | -12.20342 | 21297 ft | 413 kts | 290° |
| 2026-04-18 13:47 | 8.27858 | -12.23067 | 20466 ft | 412 kts | 290° |
| 2026-04-18 13:47 | 8.28835 | -12.25782 | 19622 ft | 411 kts | 289° |
| 2026-04-18 13:47 | 8.29814 | -12.28503 | 18717 ft | 414 kts | 289° |
| 2026-04-18 13:48 | 8.30795 | -12.31231 | 17970 ft | 413 kts | 289° |
| 2026-04-18 13:48 | 8.31770 | -12.33949 | 17208 ft | 409 kts | 289° |
| 2026-04-18 13:48 | 8.32735 | -12.36637 | 16489 ft | 405 kts | 289° |
| 2026-04-18 13:48 | 8.33675 | -12.39259 | 15804 ft | 401 kts | 289° |
| 2026-04-18 13:49 | 8.34634 | -12.41933 | 15149 ft | 398 kts | 290° |
| 2026-04-18 13:49 | 8.35564 | -12.44514 | 14605 ft | 395 kts | 290° |
| 2026-04-18 13:49 | 8.36518 | -12.47106 | 14067 ft | 393 kts | 291° |
| 2026-04-18 13:49 | 8.37472 | -12.49679 | 13507 ft | 390 kts | 291° |
| 2026-04-18 13:50 | 8.38420 | -12.52239 | 12933 ft | 387 kts | 291° |
| 2026-04-18 13:50 | 8.39356 | -12.54777 | 12340 ft | 385 kts | 291° |
| 2026-04-18 13:50 | 8.40285 | -12.57303 | 11758 ft | 382 kts | 291° |
| 2026-04-18 13:50 | 8.41207 | -12.59809 | 11193 ft | 380 kts | 291° |
| 2026-04-18 13:51 | 8.42124 | -12.62304 | 10642 ft | 378 kts | 291° |
| 2026-04-18 13:51 | 8.43031 | -12.64772 | 10252 ft | 370 kts | 291° |
| 2026-04-18 13:51 | 8.43904 | -12.67150 | 10078 ft | 353 kts | 291° |
| 2026-04-18 13:51 | 8.44739 | -12.69422 | 9931 ft | 337 kts | 292° |
| 2026-04-18 13:52 | 8.45048 | -12.70262 | 9883 ft | 331 kts | 292° |
| 2026-04-18 13:53 | 8.45491 | -12.71466 | 9801 ft | 323 kts | 292° |
| 2026-04-18 13:53 | 8.46264 | -12.73569 | 9411 ft | 319 kts | 292° |
| 2026-04-18 13:53 | 8.47036 | -12.75666 | 8985 ft | 317 kts | 292° |
| 2026-04-18 13:54 | 8.47802 | -12.77744 | 8626 ft | 314 kts | 292° |
| 2026-04-18 13:54 | 8.48559 | -12.79802 | 8290 ft | 310 kts | 292° |
| 2026-04-18 13:54 | 8.49306 | -12.81833 | 7957 ft | 307 kts | 292° |
| 2026-04-18 13:54 | 8.50046 | -12.83849 | 7583 ft | 305 kts | 292° |
| 2026-04-18 13:55 | 8.50780 | -12.85847 | 7216 ft | 303 kts | 292° |
| 2026-04-18 13:55 | 8.51505 | -12.87824 | 6992 ft | 295 kts | 292° |
| 2026-04-18 13:55 | 8.52203 | -12.89730 | 6897 ft | 283 kts | 292° |
| 2026-04-18 13:55 | 8.52870 | -12.91554 | 6803 ft | 271 kts | 292° |
| 2026-04-18 13:56 | 8.53510 | -12.93306 | 6695 ft | 260 kts | 292° |
| 2026-04-18 13:56 | 8.54131 | -12.95001 | 6487 ft | 255 kts | 292° |
| 2026-04-18 13:56 | 8.54911 | -12.96572 | 6246 ft | 247 kts | 314° |
| 2026-04-18 13:56 | 8.56277 | -12.97553 | 6013 ft | 242 kts | 344° |
| 2026-04-18 13:57 | 8.57917 | -12.97690 | 5762 ft | 237 kts | 14° |
| 2026-04-18 13:57 | 8.59405 | -12.97024 | 5526 ft | 234 kts | 38° |
| 2026-04-18 13:57 | 8.60480 | -12.95818 | 5301 ft | 234 kts | 60° |
| 2026-04-18 13:57 | 8.60990 | -12.94261 | 5064 ft | 235 kts | 85° |
| 2026-04-18 13:58 | 8.60785 | -12.92623 | 4879 ft | 237 kts | 109° |
| 2026-04-18 13:58 | 8.60212 | -12.91063 | 4664 ft | 236 kts | 110° |
| 2026-04-18 13:58 | 8.59646 | -12.89530 | 4544 ft | 232 kts | 110° |
| 2026-04-18 13:58 | 8.59068 | -12.87979 | 4541 ft | 237 kts | 110° |
| 2026-04-18 13:59 | 8.58488 | -12.86420 | 4539 ft | 237 kts | 110° |
| 2026-04-18 13:59 | 8.57753 | -12.84944 | 4538 ft | 236 kts | 129° |
| 2026-04-18 13:59 | 8.56482 | -12.83911 | 4537 ft | 237 kts | 155° |
| 2026-04-18 13:59 | 8.54877 | -12.83566 | 4538 ft | 238 kts | 182° |
| 2026-04-18 14:00 | 8.53291 | -12.84001 | 4541 ft | 239 kts | 210° |
| 2026-04-18 14:00 | 8.52059 | -12.85124 | 4446 ft | 242 kts | 237° |
| 2026-04-18 14:00 | 8.51476 | -12.86694 | 4202 ft | 238 kts | 264° |
| 2026-04-18 14:00 | 8.51668 | -12.88334 | 3993 ft | 237 kts | 291° |
| 2026-04-18 14:01 | 8.52267 | -12.89893 | 3939 ft | 238 kts | 291° |
| 2026-04-18 14:01 | 8.52411 | -12.90272 | 3940 ft | 238 kts | 291° |
| 2026-04-18 14:01 | 8.52957 | -12.91734 | 3942 ft | 238 kts | 290° |
| 2026-04-18 14:01 | 8.53521 | -12.93261 | 3931 ft | 224 kts | 290° |
| 2026-04-18 14:02 | 8.54040 | -12.94674 | 3943 ft | 207 kts | 290° |
| 2026-04-18 14:02 | 8.54506 | -12.96061 | 3955 ft | 211 kts | 284° |
| 2026-04-18 14:02 | 8.54826 | -12.97494 | 3939 ft | 208 kts | 282° |
| 2026-04-18 14:02 | 8.55147 | -12.98926 | 3887 ft | 210 kts | 284° |
| 2026-04-18 14:03 | 8.55526 | -13.00333 | 3787 ft | 202 kts | 286° |
| 2026-04-18 14:03 | 8.55924 | -13.01625 | 3700 ft | 185 kts | 287° |
| 2026-04-18 14:03 | 8.56379 | -13.02778 | 3590 ft | 169 kts | 293° |
| 2026-04-18 14:03 | 8.56816 | -13.03837 | 3350 ft | 160 kts | 289° |
| 2026-04-18 14:04 | 8.57185 | -13.04895 | 3016 ft | 160 kts | 286° |
| 2026-04-18 14:04 | 8.57514 | -13.05969 | 2699 ft | 162 kts | 283° |
| 2026-04-18 14:04 | 8.57846 | -13.07063 | 2348 ft | 162 kts | 285° |
| 2026-04-18 14:04 | 8.58175 | -13.08137 | 2080 ft | 158 kts | 284° |
| 2026-04-18 14:05 | 8.58488 | -13.09183 | 1887 ft | 153 kts | 285° |
| 2026-04-18 14:05 | 8.58795 | -13.10185 | 1667 ft | 144 kts | 286° |
| 2026-04-18 14:05 | 8.59096 | -13.11158 | 1485 ft | 147 kts | 285° |
| 2026-04-18 14:05 | 8.59388 | -13.12132 | 1306 ft | 145 kts | 287° |
| 2026-04-18 14:06 | 8.59683 | -13.13099 | 1116 ft | 144 kts | 285° |
| 2026-04-18 14:06 | 8.59971 | -13.14050 | 931 ft | 140 kts | 287° |
| 2026-04-18 14:06 | 8.60260 | -13.15010 | 761 ft | 148 kts | 287° |
| 2026-04-18 14:06 | 8.60563 | -13.16006 | 563 ft | 146 kts | 285° |
| 2026-04-18 14:07 | 8.60858 | -13.16979 | 356 ft | 144 kts | 288° |
| 2026-04-18 14:07 | 8.61199 | -13.18092 | 195 ft | 189 kts | 287° |
| 2026-04-18 14:07 | 8.61611 | -13.19407 | 102 ft | 185 kts | 287° |
| 2026-04-18 14:07 | 8.61977 | -13.20551 | 252 ft | 171 kts | 288° |
| 2026-04-18 14:08 | 8.63611 | -13.22131 | 2137 ft | 193 kts | 354° |
| 2026-04-18 14:08 | 8.64978 | -13.21817 | 3014 ft | 224 kts | 27° |
| 2026-04-18 14:08 | 8.66487 | -13.20864 | 3045 ft | 286 kts | 33° |
| 2026-04-18 14:09 | 8.68409 | -13.19869 | 3229 ft | 328 kts | 16° |
| 2026-04-18 14:09 | 8.70724 | -13.19596 | 3850 ft | 336 kts | 356° |
| 2026-04-18 14:09 | 8.73044 | -13.19884 | 4732 ft | 347 kts | 353° |
| 2026-04-18 14:09 | 8.75535 | -13.20202 | 4873 ft | 356 kts | 355° |
| 2026-04-18 14:10 | 8.77919 | -13.20391 | 4694 ft | 341 kts | 358° |
| 2026-04-18 14:10 | 8.80405 | -13.20473 | 4602 ft | 375 kts | 359° |
| 2026-04-18 14:10 | 8.83100 | -13.20494 | 4563 ft | 387 kts | 0° |
| 2026-04-18 14:10 | 8.85726 | -13.20489 | 4352 ft | 367 kts | 0° |
| 2026-04-18 14:11 | 8.88200 | -13.20519 | 4110 ft | 346 kts | 354° |
| 2026-04-18 14:11 | 8.90431 | -13.21174 | 3976 ft | 324 kts | 335° |
| 2026-04-18 14:11 | 8.92354 | -13.22202 | 3953 ft | 301 kts | 330° |
| 2026-04-18 14:11 | 8.94111 | -13.23212 | 3955 ft | 282 kts | 331° |
| 2026-04-18 14:12 | 8.95261 | -13.23819 | 3947 ft | 270 kts | 338° |
| 2026-04-18 14:12 | 8.97010 | -13.24098 | 3953 ft | 252 kts | 7° |
| 2026-04-18 14:12 | 8.98591 | -13.23491 | 3953 ft | 235 kts | 38° |
| 2026-04-18 14:12 | 8.99566 | -13.22206 | 3955 ft | 238 kts | 70° |
| 2026-04-18 14:13 | 8.99750 | -13.20567 | 3949 ft | 236 kts | 101° |
| 2026-04-18 14:13 | 8.99047 | -13.19066 | 3953 ft | 236 kts | 133° |
| 2026-04-18 14:13 | 8.97686 | -13.18178 | 3954 ft | 236 kts | 165° |
| 2026-04-18 14:13 | 8.96066 | -13.18145 | 3953 ft | 235 kts | 196° |
| 2026-04-18 14:14 | 8.94562 | -13.18745 | 3952 ft | 236 kts | 204° |
| 2026-04-18 14:14 | 8.93023 | -13.19376 | 3953 ft | 235 kts | 199° |
| 2026-04-18 14:14 | 8.91480 | -13.19828 | 3963 ft | 233 kts | 193° |
| 2026-04-18 14:14 | 8.89857 | -13.20144 | 3952 ft | 235 kts | 189° |
| 2026-04-18 14:15 | 8.88239 | -13.20364 | 3953 ft | 235 kts | 187° |
| 2026-04-18 14:15 | 8.86616 | -13.20556 | 3951 ft | 235 kts | 190° |
| 2026-04-18 14:15 | 8.85159 | -13.21249 | 3954 ft | 235 kts | 222° |
| 2026-04-18 14:15 | 8.84281 | -13.22619 | 3954 ft | 235 kts | 254° |
| 2026-04-18 14:16 | 8.84253 | -13.24253 | 3953 ft | 236 kts | 285° |
| 2026-04-18 14:16 | 8.85086 | -13.25662 | 3953 ft | 236 kts | 317° |
| 2026-04-18 14:16 | 8.86530 | -13.26414 | 3956 ft | 236 kts | 349° |
| 2026-04-18 14:16 | 8.88147 | -13.26283 | 3958 ft | 236 kts | 21° |
| 2026-04-18 14:17 | 8.89438 | -13.25325 | 3959 ft | 236 kts | 53° |
| 2026-04-18 14:17 | 8.90290 | -13.23908 | 3957 ft | 236 kts | 69° |
| 2026-04-18 14:17 | 8.89807 | -13.20780 | 3951 ft | 235 kts | 132° |
| 2026-04-18 14:18 | 8.87270 | -13.18835 | 3951 ft | 228 kts | 147° |
| 2026-04-18 14:18 | 8.85939 | -13.17958 | 3951 ft | 228 kts | 147° |
| 2026-04-18 14:19 | 8.83314 | -13.16150 | 3950 ft | 228 kts | 145° |
| 2026-04-18 14:19 | 8.82016 | -13.15223 | 3950 ft | 228 kts | 145° |
| 2026-04-18 14:19 | 8.79423 | -13.13350 | 3947 ft | 235 kts | 144° |
| 2026-04-18 14:20 | 8.78090 | -13.12385 | 3947 ft | 235 kts | 145° |
| 2026-04-18 14:20 | 8.76760 | -13.11425 | 3944 ft | 235 kts | 144° |
| 2026-04-18 14:20 | 8.75434 | -13.10463 | 3949 ft | 234 kts | 144° |
| 2026-04-18 14:20 | 8.74126 | -13.09481 | 3936 ft | 234 kts | 136° |
| 2026-04-18 14:21 | 8.73241 | -13.08109 | 3951 ft | 237 kts | 115° |
| 2026-04-18 14:21 | 8.72569 | -13.06591 | 3941 ft | 235 kts | 114° |
| 2026-04-18 14:21 | 8.71914 | -13.05086 | 3941 ft | 234 kts | 114° |
| 2026-04-18 14:22 | 8.70596 | -13.02063 | 3942 ft | 234 kts | 114° |
| 2026-04-18 14:22 | 8.69938 | -13.00551 | 3943 ft | 236 kts | 114° |
| 2026-04-18 14:22 | 8.68626 | -12.97538 | 3934 ft | 233 kts | 114° |
| 2026-04-18 14:23 | 8.67972 | -12.96035 | 3933 ft | 233 kts | 114° |
| 2026-04-18 14:23 | 8.66658 | -12.93017 | 3932 ft | 234 kts | 114° |
| 2026-04-18 14:23 | 8.66002 | -12.91511 | 3935 ft | 234 kts | 114° |
| 2026-04-18 14:24 | 8.64581 | -12.88560 | 3926 ft | 233 kts | 132° |
| 2026-04-18 14:24 | 8.63254 | -12.87657 | 3929 ft | 233 kts | 163° |
| 2026-04-18 14:24 | 8.61655 | -12.87601 | 3932 ft | 233 kts | 195° |
| 2026-04-18 14:25 | 8.60265 | -12.88411 | 3935 ft | 234 kts | 225° |
| 2026-04-18 14:25 | 8.59151 | -12.89618 | 3929 ft | 234 kts | 227° |
| 2026-04-18 14:25 | 8.58059 | -12.90844 | 3931 ft | 235 kts | 227° |
| 2026-04-18 14:25 | 8.56962 | -12.92067 | 3934 ft | 235 kts | 227° |
| 2026-04-18 14:26 | 8.55857 | -12.93284 | 3929 ft | 235 kts | 227° |
| 2026-04-18 14:26 | 8.54745 | -12.94493 | 3934 ft | 235 kts | 226° |
| 2026-04-18 14:26 | 8.53647 | -12.95715 | 3932 ft | 235 kts | 234° |
| 2026-04-18 14:26 | 8.53066 | -12.97239 | 3938 ft | 237 kts | 265° |
| 2026-04-18 14:27 | 8.53362 | -12.98856 | 3937 ft | 238 kts | 297° |
| 2026-04-18 14:27 | 8.54298 | -13.00222 | 3859 ft | 235 kts | 308° |
| 2026-04-18 14:27 | 8.55279 | -13.01531 | 3639 ft | 230 kts | 304° |
| 2026-04-18 14:27 | 8.56088 | -13.02876 | 3556 ft | 218 kts | 297° |
| 2026-04-18 14:28 | 8.56730 | -13.04204 | 3468 ft | 203 kts | 294° |
| 2026-04-18 14:28 | 8.57274 | -13.05444 | 3386 ft | 184 kts | 290° |
| 2026-04-18 14:28 | 8.57694 | -13.06608 | 3279 ft | 168 kts | 287° |
| 2026-04-18 14:28 | 8.58036 | -13.07685 | 3111 ft | 156 kts | 285° |
| 2026-04-18 14:29 | 8.58352 | -13.08721 | 2810 ft | 152 kts | 285° |
| 2026-04-18 14:29 | 8.58651 | -13.09722 | 2538 ft | 146 kts | 285° |
| 2026-04-18 14:29 | 8.58949 | -13.10686 | 2179 ft | 147 kts | 287° |
| 2026-04-18 14:29 | 8.59242 | -13.11650 | 1899 ft | 142 kts | 284° |
| 2026-04-18 14:30 | 8.59516 | -13.12548 | 1780 ft | 126 kts | 285° |
| 2026-04-18 14:30 | 8.59786 | -13.13447 | 1651 ft | 139 kts | 285° |
| 2026-04-18 14:30 | 8.60057 | -13.14383 | 1336 ft | 135 kts | 285° |
| 2026-04-18 14:30 | 8.60333 | -13.15276 | 1017 ft | 133 kts | 288° |
| 2026-04-18 14:31 | 8.60665 | -13.16174 | 744 ft | 138 kts | 289° |
| 2026-04-18 14:31 | 8.60920 | -13.17101 | 467 ft | 136 kts | 282° |
| 2026-04-18 14:31 | 8.61158 | -13.17994 | 177 ft | 127 kts | 291° |
| 2026-04-18 14:31 | 8.61407 | -13.18785 | 97 ft | 106 kts | 289° |
| 2026-04-18 14:32 | 8.61554 | -13.19261 | 98 ft | 61 kts | 288° |
| 2026-04-18 14:32 | 8.61683 | -13.19701 | 97 ft | 58 kts | 285° |
| 2026-04-18 14:32 | 8.61789 | -13.20018 | 95 ft | 42 kts | 287° |
| 2026-04-18 14:32 | 8.61853 | -13.20126 | 93 ft | 17 kts | 4° |
| 2026-04-18 14:33 | 8.61962 | -13.20076 | 96 ft | 16 kts | 59° |
| 2026-04-18 14:33 | 8.61948 | -13.19985 | 97 ft | 16 kts | 107° |
| 2026-04-18 14:33 | 8.61909 | -13.19864 | 97 ft | 20 kts | 109° |
| 2026-04-18 14:33 | 8.61859 | -13.19715 | 98 ft | 24 kts | 106° |
| 2026-04-18 14:34 | 8.61813 | -13.19549 | 96 ft | 25 kts | 106° |
| 2026-04-18 14:34 | 8.61761 | -13.19377 | 97 ft | 26 kts | 108° |
| 2026-04-18 14:34 | 8.61706 | -13.19200 | 97 ft | 27 kts | 105° |
| 2026-04-18 14:34 | 8.61657 | -13.19031 | 94 ft | 21 kts | 108° |
| 2026-04-18 14:35 | 8.61616 | -13.18904 | 97 ft | 17 kts | 105° |
| 2026-04-18 14:35 | 8.61591 | -13.18816 | 97 ft | 10 kts | 106° |
| 2026-04-18 14:35 | 8.61601 | -13.18775 | 99 ft | 4 kts | 7° |
| 2026-04-18 14:35 | 8.61638 | -13.18775 | 96 ft | 6 kts | 9° |
| 2026-04-18 14:36 | 8.61671 | -13.18767 | 96 ft | 0 kts | 14° |
| 2026-04-18 14:36 | 8.61680 | -13.18764 | 96 ft | 2 kts | 13° |
| 2026-04-18 14:36 | 8.61694 | -13.18761 | 96 ft | 0 kts | 14° |